sensor_id;sensor_type;location;lat;lon;timestamp;temperature;humidity
11925;DHT22;6022;48.768;18.608;2023-01-30T00:02:09;-3.60;99.90
11925;DHT22;6022;48.768;18.608;2023-01-30T00:04:36;-3.60;99.90
11925;DHT22;6022;48.768;18.608;2023-01-30T00:07:03;-3.80;99.90
11925;DHT22;6022;48.768;18.608;2023-01-30T00:09:30;-3.70;99.90
11925;DHT22;6022;48.768;18.608;2023-01-30T00:11:58;-4.00;99.90
11925;DHT22;6022;48.768;18.608;2023-01-30T00:14:25;-3.70;99.90
11925;DHT22;6022;48.768;18.608;2023-01-30T00:16:52;-3.90;99.90
11925;DHT22;6022;48.768;18.608;2023-01-30T00:19:19;-4.00;99.90
11925;DHT22;6022;48.768;18.608;2023-01-30T00:21:46;-4.10;99.90
11925;DHT22;6022;48.768;18.608;2023-01-30T00:24:13;-3.60;99.90
11925;DHT22;6022;48.768;18.608;2023-01-30T00:26:40;-3.70;99.90
11925;DHT22;6022;48.768;18.608;2023-01-30T00:29:07;-3.90;99.90
11925;DHT22;6022;48.768;18.608;2023-01-30T00:31:35;-3.80;99.90
11925;DHT22;6022;48.768;18.608;2023-01-30T00:34:02;-4.20;99.90
11925;DHT22;6022;48.768;18.608;2023-01-30T00:36:29;-3.90;99.90
11925;DHT22;6022;48.768;18.608;2023-01-30T00:38:56;-4.30;99.90
11925;DHT22;6022;48.768;18.608;2023-01-30T00:41:24;-4.10;99.90
11925;DHT22;6022;48.768;18.608;2023-01-30T00:44:11;-4.10;99.90
11925;DHT22;6022;48.768;18.608;2023-01-30T00:46:57;-4.10;99.90
11925;DHT22;6022;48.768;18.608;2023-01-30T00:49:35;-3.80;99.90
11925;DHT22;6022;48.768;18.608;2023-01-30T00:52:04;-4.00;99.90
11925;DHT22;6022;48.768;18.608;2023-01-30T00:54:31;-4.40;99.90
11925;DHT22;6022;48.768;18.608;2023-01-30T00:56:58;-4.20;99.90
11925;DHT22;6022;48.768;18.608;2023-01-30T00:59:26;-4.00;99.90
11925;DHT22;6022;48.768;18.608;2023-01-30T01:01:54;-4.30;99.90
11925;DHT22;6022;48.768;18.608;2023-01-30T01:04:21;-2.80;99.90
11925;DHT22;6022;48.768;18.608;2023-01-30T01:06:48;-4.20;99.90
11925;DHT22;6022;48.768;18.608;2023-01-30T01:09:16;-4.50;99.90
11925;DHT22;6022;48.768;18.608;2023-01-30T01:11:43;-4.30;99.90
11925;DHT22;6022;48.768;18.608;2023-01-30T01:14:10;-4.30;99.90
11925;DHT22;6022;48.768;18.608;2023-01-30T01:16:37;-4.40;99.90
11925;DHT22;6022;48.768;18.608;2023-01-30T01:19:05;-4.40;99.90
11925;DHT22;6022;48.768;18.608;2023-01-30T01:21:32;-4.30;99.90
11925;DHT22;6022;48.768;18.608;2023-01-30T01:23:59;-4.50;99.90
11925;DHT22;6022;48.768;18.608;2023-01-30T01:26:26;-4.40;99.90
11925;DHT22;6022;48.768;18.608;2023-01-30T01:28:55;-4.50;99.90
11925;DHT22;6022;48.768;18.608;2023-01-30T01:31:23;-4.60;99.90
11925;DHT22;6022;48.768;18.608;2023-01-30T01:33:51;-4.40;99.90
11925;DHT22;6022;48.768;18.608;2023-01-30T01:36:18;-4.40;99.90
11925;DHT22;6022;48.768;18.608;2023-01-30T01:39:06;-4.60;99.90
11925;DHT22;6022;48.768;18.608;2023-01-30T01:41:33;-4.60;99.90
11925;DHT22;6022;48.768;18.608;2023-01-30T01:49:27;-4.50;99.90
11925;DHT22;6022;48.768;18.608;2023-01-30T01:54:55;-4.70;99.90
11925;DHT22;6022;48.768;18.608;2023-01-30T01:57:36;-4.80;99.90
11925;DHT22;6022;48.768;18.608;2023-01-30T02:00:19;-4.70;99.90
11925;DHT22;6022;48.768;18.608;2023-01-30T02:02:54;-4.60;99.90
11925;DHT22;6022;48.768;18.608;2023-01-30T02:05:27;-4.60;99.90
11925;DHT22;6022;48.768;18.608;2023-01-30T02:08:17;-4.60;99.90
11925;DHT22;6022;48.768;18.608;2023-01-30T02:10:57;-4.90;99.90
11925;DHT22;6022;48.768;18.608;2023-01-30T02:13:26;-4.70;99.90
11925;DHT22;6022;48.768;18.608;2023-01-30T02:15:59;-4.60;99.90
11925;DHT22;6022;48.768;18.608;2023-01-30T02:18:30;-4.60;99.90
11925;DHT22;6022;48.768;18.608;2023-01-30T02:42:56;-5.30;99.90
11925;DHT22;6022;48.768;18.608;2023-01-30T02:45:44;-5.10;99.90
11925;DHT22;6022;48.768;18.608;2023-01-30T02:48:22;-5.40;99.90
11925;DHT22;6022;48.768;18.608;2023-01-30T02:51:13;-5.40;99.90
11925;DHT22;6022;48.768;18.608;2023-01-30T02:53:46;-5.20;99.90
11925;DHT22;6022;48.768;18.608;2023-01-30T02:56:15;-5.20;99.90
11925;DHT22;6022;48.768;18.608;2023-01-30T02:58:48;-5.30;99.90
11925;DHT22;6022;48.768;18.608;2023-01-30T03:07:44;-4.90;99.90
11925;DHT22;6022;48.768;18.608;2023-01-30T03:10:31;-5.20;99.90
11925;DHT22;6022;48.768;18.608;2023-01-30T03:16:21;-5.10;99.90
11925;DHT22;6022;48.768;18.608;2023-01-30T03:18:54;-5.40;99.90
11925;DHT22;6022;48.768;18.608;2023-01-30T03:21:21;-5.20;99.90
11925;DHT22;6022;48.768;18.608;2023-01-30T03:23:48;-4.40;99.90
11925;DHT22;6022;48.768;18.608;2023-01-30T03:26:21;-5.50;99.90
11925;DHT22;6022;48.768;18.608;2023-01-30T03:28:52;-5.10;99.90
11925;DHT22;6022;48.768;18.608;2023-01-30T03:31:19;-5.20;99.90
11925;DHT22;6022;48.768;18.608;2023-01-30T03:33:49;-5.20;99.90
11925;DHT22;6022;48.768;18.608;2023-01-30T03:36:16;-5.10;99.90
11925;DHT22;6022;48.768;18.608;2023-01-30T03:38:43;-5.50;99.90
11925;DHT22;6022;48.768;18.608;2023-01-30T03:41:11;-5.40;99.90
11925;DHT22;6022;48.768;18.608;2023-01-30T03:43:38;-5.20;99.90
11925;DHT22;6022;48.768;18.608;2023-01-30T03:46:05;-5.50;99.90
11925;DHT22;6022;48.768;18.608;2023-01-30T03:51:00;-5.50;99.90
11925;DHT22;6022;48.768;18.608;2023-01-30T03:53:27;-5.40;99.90
11925;DHT22;6022;48.768;18.608;2023-01-30T03:55:54;-5.30;99.90
11925;DHT22;6022;48.768;18.608;2023-01-30T03:58:21;-5.60;99.90
11925;DHT22;6022;48.768;18.608;2023-01-30T04:00:48;-5.50;99.90
11925;DHT22;6022;48.768;18.608;2023-01-30T04:03:15;-5.50;99.90
11925;DHT22;6022;48.768;18.608;2023-01-30T04:05:42;-5.50;99.90
11925;DHT22;6022;48.768;18.608;2023-01-30T04:08:10;-5.60;99.90
11925;DHT22;6022;48.768;18.608;2023-01-30T04:10:37;-5.60;99.90
11925;DHT22;6022;48.768;18.608;2023-01-30T04:13:04;-5.60;99.90
11925;DHT22;6022;48.768;18.608;2023-01-30T04:15:32;-5.70;99.90
11925;DHT22;6022;48.768;18.608;2023-01-30T04:17:59;-5.40;99.90
11925;DHT22;6022;48.768;18.608;2023-01-30T04:20:26;-5.70;99.90
11925;DHT22;6022;48.768;18.608;2023-01-30T04:22:54;-5.50;99.90
11925;DHT22;6022;48.768;18.608;2023-01-30T04:25:22;-5.70;99.90
11925;DHT22;6022;48.768;18.608;2023-01-30T04:27:49;-5.70;99.90
11925;DHT22;6022;48.768;18.608;2023-01-30T04:30:16;-5.80;99.90
11925;DHT22;6022;48.768;18.608;2023-01-30T04:32:46;-5.60;99.90
11925;DHT22;6022;48.768;18.608;2023-01-30T04:37:42;-5.60;99.90
11925;DHT22;6022;48.768;18.608;2023-01-30T04:40:10;-6.00;99.90
11925;DHT22;6022;48.768;18.608;2023-01-30T04:42:37;-5.90;99.90
11925;DHT22;6022;48.768;18.608;2023-01-30T04:45:05;-5.50;99.90
11925;DHT22;6022;48.768;18.608;2023-01-30T04:50:00;-5.90;99.90
11925;DHT22;6022;48.768;18.608;2023-01-30T04:52:27;-5.50;99.90
11925;DHT22;6022;48.768;18.608;2023-01-30T04:57:21;-5.70;99.90
11925;DHT22;6022;48.768;18.608;2023-01-30T04:59:49;-5.60;99.90
11925;DHT22;6022;48.768;18.608;2023-01-30T05:02:16;-6.00;99.90
11925;DHT22;6022;48.768;18.608;2023-01-30T05:04:43;-6.00;99.90
11925;DHT22;6022;48.768;18.608;2023-01-30T05:07:10;-5.70;99.90
11925;DHT22;6022;48.768;18.608;2023-01-30T05:09:37;-5.70;99.90
11925;DHT22;6022;48.768;18.608;2023-01-30T05:12:04;-5.60;99.90
11925;DHT22;6022;48.768;18.608;2023-01-30T05:14:32;-5.80;99.90
11925;DHT22;6022;48.768;18.608;2023-01-30T05:17:00;-6.00;99.90
11925;DHT22;6022;48.768;18.608;2023-01-30T05:19:28;-4.30;99.90
11925;DHT22;6022;48.768;18.608;2023-01-30T05:21:55;-5.60;99.90
11925;DHT22;6022;48.768;18.608;2023-01-30T05:24:24;-5.80;99.90
11925;DHT22;6022;48.768;18.608;2023-01-30T05:26:52;-5.70;99.90
11925;DHT22;6022;48.768;18.608;2023-01-30T05:29:19;-5.80;99.90
11925;DHT22;6022;48.768;18.608;2023-01-30T05:31:46;-6.10;99.90
11925;DHT22;6022;48.768;18.608;2023-01-30T05:34:13;-5.70;99.90
11925;DHT22;6022;48.768;18.608;2023-01-30T05:36:40;-5.70;99.90
11925;DHT22;6022;48.768;18.608;2023-01-30T05:39:07;-5.60;99.90
11925;DHT22;6022;48.768;18.608;2023-01-30T05:41:35;-5.50;99.90
11925;DHT22;6022;48.768;18.608;2023-01-30T05:44:02;-5.40;99.90
11925;DHT22;6022;48.768;18.608;2023-01-30T05:46:30;-5.50;99.90
11925;DHT22;6022;48.768;18.608;2023-01-30T05:48:58;-5.30;99.90
11925;DHT22;6022;48.768;18.608;2023-01-30T05:51:26;-5.00;99.90
11925;DHT22;6022;48.768;18.608;2023-01-30T05:53:53;-5.40;99.90
11925;DHT22;6022;48.768;18.608;2023-01-30T05:56:21;-5.60;99.90
11925;DHT22;6022;48.768;18.608;2023-01-30T05:58:53;-5.40;99.90
11925;DHT22;6022;48.768;18.608;2023-01-30T06:01:22;-5.70;99.90
11925;DHT22;6022;48.768;18.608;2023-01-30T06:03:50;-5.10;99.90
11925;DHT22;6022;48.768;18.608;2023-01-30T06:06:18;-5.30;99.90
11925;DHT22;6022;48.768;18.608;2023-01-30T06:08:46;-5.20;99.90
11925;DHT22;6022;48.768;18.608;2023-01-30T06:11:15;-5.00;99.90
11925;DHT22;6022;48.768;18.608;2023-01-30T06:13:43;-5.20;99.90
11925;DHT22;6022;48.768;18.608;2023-01-30T06:16:12;-5.30;99.90
11925;DHT22;6022;48.768;18.608;2023-01-30T06:18:41;-5.10;99.90
11925;DHT22;6022;48.768;18.608;2023-01-30T06:21:08;-5.40;99.90
11925;DHT22;6022;48.768;18.608;2023-01-30T06:23:38;-5.30;99.90
11925;DHT22;6022;48.768;18.608;2023-01-30T06:26:05;-5.00;99.90
11925;DHT22;6022;48.768;18.608;2023-01-30T06:28:35;-5.10;99.90
11925;DHT22;6022;48.768;18.608;2023-01-30T06:31:05;-5.20;99.90
11925;DHT22;6022;48.768;18.608;2023-01-30T06:33:34;-4.90;99.90
11925;DHT22;6022;48.768;18.608;2023-01-30T06:36:01;-5.00;99.90
11925;DHT22;6022;48.768;18.608;2023-01-30T06:38:28;-4.30;99.90
11925;DHT22;6022;48.768;18.608;2023-01-30T06:40:56;-5.10;99.90
11925;DHT22;6022;48.768;18.608;2023-01-30T06:43:24;-4.80;99.90
11925;DHT22;6022;48.768;18.608;2023-01-30T06:45:51;-4.90;99.90
11925;DHT22;6022;48.768;18.608;2023-01-30T06:48:18;-4.90;99.90
11925;DHT22;6022;48.768;18.608;2023-01-30T06:50:46;-4.90;99.90
11925;DHT22;6022;48.768;18.608;2023-01-30T06:53:14;-4.90;99.90
11925;DHT22;6022;48.768;18.608;2023-01-30T06:55:44;-4.80;99.90
11925;DHT22;6022;48.768;18.608;2023-01-30T06:58:13;-3.50;99.90
11925;DHT22;6022;48.768;18.608;2023-01-30T07:00:41;-3.80;99.90
11925;DHT22;6022;48.768;18.608;2023-01-30T07:03:13;-4.90;99.90
11925;DHT22;6022;48.768;18.608;2023-01-30T07:05:44;-5.20;99.90
11925;DHT22;6022;48.768;18.608;2023-01-30T07:08:15;-4.70;99.90
11925;DHT22;6022;48.768;18.608;2023-01-30T07:10:43;-5.10;99.90
11925;DHT22;6022;48.768;18.608;2023-01-30T07:13:13;-4.90;99.90
11925;DHT22;6022;48.768;18.608;2023-01-30T07:15:40;-3.40;99.90
11925;DHT22;6022;48.768;18.608;2023-01-30T07:18:07;-4.80;99.90
11925;DHT22;6022;48.768;18.608;2023-01-30T07:20:35;-4.60;99.90
11925;DHT22;6022;48.768;18.608;2023-01-30T07:23:02;-4.40;99.90
11925;DHT22;6022;48.768;18.608;2023-01-30T07:25:30;-4.70;99.90
11925;DHT22;6022;48.768;18.608;2023-01-30T07:27:59;-4.60;99.90
11925;DHT22;6022;48.768;18.608;2023-01-30T07:30:29;-4.40;99.90
11925;DHT22;6022;48.768;18.608;2023-01-30T07:32:59;-4.30;99.90
11925;DHT22;6022;48.768;18.608;2023-01-30T07:35:29;-4.60;99.90
11925;DHT22;6022;48.768;18.608;2023-01-30T07:38:01;-3.40;99.90
11925;DHT22;6022;48.768;18.608;2023-01-30T07:40:28;-4.40;99.90
11925;DHT22;6022;48.768;18.608;2023-01-30T07:43:03;-4.40;99.90
11925;DHT22;6022;48.768;18.608;2023-01-30T07:45:44;-4.40;99.90
11925;DHT22;6022;48.768;18.608;2023-01-30T07:48:15;-4.20;99.90
11925;DHT22;6022;48.768;18.608;2023-01-30T07:50:44;-4.30;99.90
11925;DHT22;6022;48.768;18.608;2023-01-30T07:53:14;-4.20;99.90
11925;DHT22;6022;48.768;18.608;2023-01-30T07:55:42;-4.50;99.90
11925;DHT22;6022;48.768;18.608;2023-01-30T07:58:22;-4.10;99.90
11925;DHT22;6022;48.768;18.608;2023-01-30T08:00:49;-4.10;99.90
11925;DHT22;6022;48.768;18.608;2023-01-30T08:03:16;-3.90;99.90
11925;DHT22;6022;48.768;18.608;2023-01-30T08:05:49;-4.10;99.90
11925;DHT22;6022;48.768;18.608;2023-01-30T08:08:19;-3.90;99.90
11925;DHT22;6022;48.768;18.608;2023-01-30T08:10:52;-2.50;99.90
11925;DHT22;6022;48.768;18.608;2023-01-30T08:13:22;-3.80;99.90
11925;DHT22;6022;48.768;18.608;2023-01-30T08:15:52;-3.60;99.90
11925;DHT22;6022;48.768;18.608;2023-01-30T08:18:19;-3.70;99.90
11925;DHT22;6022;48.768;18.608;2023-01-30T08:20:49;-3.70;99.90
11925;DHT22;6022;48.768;18.608;2023-01-30T08:23:17;-3.60;99.90
11925;DHT22;6022;48.768;18.608;2023-01-30T08:25:44;-3.50;99.90
11925;DHT22;6022;48.768;18.608;2023-01-30T08:28:11;-4.00;99.90
11925;DHT22;6022;48.768;18.608;2023-01-30T08:30:40;-3.80;99.90
11925;DHT22;6022;48.768;18.608;2023-01-30T08:33:11;-3.60;99.90
11925;DHT22;6022;48.768;18.608;2023-01-30T08:35:40;-3.70;99.90
11925;DHT22;6022;48.768;18.608;2023-01-30T08:40:38;-3.40;99.90
11925;DHT22;6022;48.768;18.608;2023-01-30T08:43:05;-3.50;99.90
11925;DHT22;6022;48.768;18.608;2023-01-30T08:45:33;-3.70;99.90
11925;DHT22;6022;48.768;18.608;2023-01-30T08:48:05;-3.70;99.90
11925;DHT22;6022;48.768;18.608;2023-01-30T08:50:32;-3.30;99.90
11925;DHT22;6022;48.768;18.608;2023-01-30T08:53:05;-3.50;99.90
11925;DHT22;6022;48.768;18.608;2023-01-30T08:55:35;-3.40;99.90
11925;DHT22;6022;48.768;18.608;2023-01-30T08:58:02;-3.30;99.90
11925;DHT22;6022;48.768;18.608;2023-01-30T09:00:32;-3.40;99.90
11925;DHT22;6022;48.768;18.608;2023-01-30T09:02:59;-3.10;99.90
11925;DHT22;6022;48.768;18.608;2023-01-30T09:05:27;-3.20;99.90
11925;DHT22;6022;48.768;18.608;2023-01-30T09:07:57;-1.80;99.90
11925;DHT22;6022;48.768;18.608;2023-01-30T09:10:24;-3.40;99.90
11925;DHT22;6022;48.768;18.608;2023-01-30T09:12:51;-3.50;99.90
11925;DHT22;6022;48.768;18.608;2023-01-30T09:17:46;-3.20;99.90
11925;DHT22;6022;48.768;18.608;2023-01-30T09:22:49;-3.50;99.90
11925;DHT22;6022;48.768;18.608;2023-01-30T09:25:16;-3.10;99.90
11925;DHT22;6022;48.768;18.608;2023-01-30T09:27:47;-3.10;99.90
11925;DHT22;6022;48.768;18.608;2023-01-30T09:30:15;-3.60;99.90
11925;DHT22;6022;48.768;18.608;2023-01-30T09:32:44;-3.10;99.90
11925;DHT22;6022;48.768;18.608;2023-01-30T09:35:11;-3.00;99.90
11925;DHT22;6022;48.768;18.608;2023-01-30T09:37:48;-3.20;99.90
11925;DHT22;6022;48.768;18.608;2023-01-30T09:40:20;-2.90;99.90
11925;DHT22;6022;48.768;18.608;2023-01-30T09:52:19;-3.00;99.90
11925;DHT22;6022;48.768;18.608;2023-01-30T09:57:41;-2.60;99.90
11925;DHT22;6022;48.768;18.608;2023-01-30T10:00:31;-2.70;99.90
11925;DHT22;6022;48.768;18.608;2023-01-30T10:03:09;-2.80;99.90
11925;DHT22;6022;48.768;18.608;2023-01-30T10:05:50;-2.40;99.90
11925;DHT22;6022;48.768;18.608;2023-01-30T10:08:37;-2.50;99.90
11925;DHT22;6022;48.768;18.608;2023-01-30T10:25:47;-2.40;99.90
11925;DHT22;6022;48.768;18.608;2023-01-30T10:28:25;-2.20;99.90
11925;DHT22;6022;48.768;18.608;2023-01-30T10:31:06;-2.10;99.90
11925;DHT22;6022;48.768;18.608;2023-01-30T10:37:13;-2.00;99.90
11925;DHT22;6022;48.768;18.608;2023-01-30T10:45:21;-1.70;99.90
11925;DHT22;6022;48.768;18.608;2023-01-30T10:54:52;-1.20;99.90
11925;DHT22;6022;48.768;18.608;2023-01-30T11:03:29;-1.30;99.90
11925;DHT22;6022;48.768;18.608;2023-01-30T11:06:17;-1.40;99.90
11925;DHT22;6022;48.768;18.608;2023-01-30T11:08:50;-1.40;99.90
11925;DHT22;6022;48.768;18.608;2023-01-30T11:11:48;-1.40;99.90
11925;DHT22;6022;48.768;18.608;2023-01-30T11:14:20;-1.60;99.90
11925;DHT22;6022;48.768;18.608;2023-01-30T11:16:52;-1.40;99.90
11925;DHT22;6022;48.768;18.608;2023-01-30T11:19:30;-1.60;99.90
11925;DHT22;6022;48.768;18.608;2023-01-30T11:22:02;-1.50;99.90
11925;DHT22;6022;48.768;18.608;2023-01-30T11:24:42;-1.50;99.90
11925;DHT22;6022;48.768;18.608;2023-01-30T11:27:27;-1.80;99.90
11925;DHT22;6022;48.768;18.608;2023-01-30T11:30:25;-1.50;99.90
11925;DHT22;6022;48.768;18.608;2023-01-30T11:33:07;-1.10;99.90
11925;DHT22;6022;48.768;18.608;2023-01-30T11:35:56;-1.20;99.90
11925;DHT22;6022;48.768;18.608;2023-01-30T11:38:26;-1.20;99.90
11925;DHT22;6022;48.768;18.608;2023-01-30T11:43:38;-1.00;99.90
11925;DHT22;6022;48.768;18.608;2023-01-30T11:46:07;-1.00;99.90
11925;DHT22;6022;48.768;18.608;2023-01-30T11:51:44;-1.10;99.90
11925;DHT22;6022;48.768;18.608;2023-01-30T11:54:15;-1.00;99.90
11925;DHT22;6022;48.768;18.608;2023-01-30T11:56:52;-1.00;99.90
11925;DHT22;6022;48.768;18.608;2023-01-30T12:02:31;-0.90;99.90
11925;DHT22;6022;48.768;18.608;2023-01-30T12:06:03;-0.90;99.90
11925;DHT22;6022;48.768;18.608;2023-01-30T12:11:43;-1.00;99.90
11925;DHT22;6022;48.768;18.608;2023-01-30T12:17:31;-0.80;99.90
11925;DHT22;6022;48.768;18.608;2023-01-30T12:31:49;-0.80;99.90
11925;DHT22;6022;48.768;18.608;2023-01-30T12:34:27;-0.70;99.90
11925;DHT22;6022;48.768;18.608;2023-01-30T12:48:41;-0.50;99.90
11925;DHT22;6022;48.768;18.608;2023-01-30T12:51:20;-0.40;99.90
11925;DHT22;6022;48.768;18.608;2023-01-30T12:54:56;-0.50;99.90
11925;DHT22;6022;48.768;18.608;2023-01-30T12:57:56;-0.50;99.90
11925;DHT22;6022;48.768;18.608;2023-01-30T13:00:47;-0.90;99.90
11925;DHT22;6022;48.768;18.608;2023-01-30T13:03:41;-0.60;99.90
11925;DHT22;6022;48.768;18.608;2023-01-30T13:20:51;-0.60;99.90
11925;DHT22;6022;48.768;18.608;2023-01-30T13:26:33;-0.50;99.90
11925;DHT22;6022;48.768;18.608;2023-01-30T13:29:48;-0.50;99.90
11925;DHT22;6022;48.768;18.608;2023-01-30T13:32:26;-0.70;99.90
11925;DHT22;6022;48.768;18.608;2023-01-30T13:35:08;-0.50;99.90
11925;DHT22;6022;48.768;18.608;2023-01-30T13:37:45;-0.60;99.90
11925;DHT22;6022;48.768;18.608;2023-01-30T13:40:21;-0.40;99.90
11925;DHT22;6022;48.768;18.608;2023-01-30T13:45:40;-0.60;99.90
11925;DHT22;6022;48.768;18.608;2023-01-30T13:48:54;-0.60;99.90
11925;DHT22;6022;48.768;18.608;2023-01-30T13:54:24;-0.70;99.90
11925;DHT22;6022;48.768;18.608;2023-01-30T14:00:34;-0.60;99.90
11925;DHT22;6022;48.768;18.608;2023-01-30T14:03:13;-0.50;99.90
11925;DHT22;6022;48.768;18.608;2023-01-30T14:08:23;-0.40;99.90
11925;DHT22;6022;48.768;18.608;2023-01-30T14:10:56;-0.40;99.90
11925;DHT22;6022;48.768;18.608;2023-01-30T14:13:25;2.00;99.90
11925;DHT22;6022;48.768;18.608;2023-01-30T14:15:56;-0.30;99.90
11925;DHT22;6022;48.768;18.608;2023-01-30T14:18:28;-0.40;99.90
11925;DHT22;6022;48.768;18.608;2023-01-30T14:24:00;-0.30;99.90
11925;DHT22;6022;48.768;18.608;2023-01-30T15:07:55;-0.40;99.90
11925;DHT22;6022;48.768;18.608;2023-01-30T15:16:50;-0.60;99.90
11925;DHT22;6022;48.768;18.608;2023-01-30T15:25:41;-0.60;99.90
11925;DHT22;6022;48.768;18.608;2023-01-30T15:31:22;-0.30;99.90
11925;DHT22;6022;48.768;18.608;2023-01-30T15:33:52;-0.60;99.90
11925;DHT22;6022;48.768;18.608;2023-01-30T15:36:27;-0.40;99.90
11925;DHT22;6022;48.768;18.608;2023-01-30T15:39:20;-0.50;99.90
11925;DHT22;6022;48.768;18.608;2023-01-30T15:41:51;-0.50;99.90
11925;DHT22;6022;48.768;18.608;2023-01-30T15:47:45;-0.40;99.90
11925;DHT22;6022;48.768;18.608;2023-01-30T15:50:19;-0.40;99.90
11925;DHT22;6022;48.768;18.608;2023-01-30T15:52:48;-0.50;99.90
11925;DHT22;6022;48.768;18.608;2023-01-30T15:55:29;-0.50;99.90
11925;DHT22;6022;48.768;18.608;2023-01-30T15:58:11;-0.40;99.90
11925;DHT22;6022;48.768;18.608;2023-01-30T16:00:46;-0.30;99.90
11925;DHT22;6022;48.768;18.608;2023-01-30T16:03:45;-0.50;99.90
11925;DHT22;6022;48.768;18.608;2023-01-30T16:06:33;-0.30;99.90
11925;DHT22;6022;48.768;18.608;2023-01-30T16:09:25;-0.30;99.90
11925;DHT22;6022;48.768;18.608;2023-01-30T16:11:51;-0.50;99.90
11925;DHT22;6022;48.768;18.608;2023-01-30T16:14:20;-0.40;99.90
11925;DHT22;6022;48.768;18.608;2023-01-30T16:16:56;-0.30;99.90
11925;DHT22;6022;48.768;18.608;2023-01-30T16:19:30;-0.40;99.90
11925;DHT22;6022;48.768;18.608;2023-01-30T16:22:01;-0.30;99.90
11925;DHT22;6022;48.768;18.608;2023-01-30T16:24:33;-0.40;99.90
11925;DHT22;6022;48.768;18.608;2023-01-30T16:27:06;-0.40;99.90
11925;DHT22;6022;48.768;18.608;2023-01-30T16:29:50;-0.30;99.90
11925;DHT22;6022;48.768;18.608;2023-01-30T16:32:26;-0.10;99.90
11925;DHT22;6022;48.768;18.608;2023-01-30T16:35:13;-0.20;99.90
11925;DHT22;6022;48.768;18.608;2023-01-30T16:37:55;-0.20;99.90
11925;DHT22;6022;48.768;18.608;2023-01-30T16:40:26;-0.30;99.90
11925;DHT22;6022;48.768;18.608;2023-01-30T16:43:22;-0.40;99.90
11925;DHT22;6022;48.768;18.608;2023-01-30T16:48:34;-0.30;99.90
11925;DHT22;6022;48.768;18.608;2023-01-30T16:51:14;-0.40;99.90
11925;DHT22;6022;48.768;18.608;2023-01-30T16:53:52;-0.40;99.90
11925;DHT22;6022;48.768;18.608;2023-01-30T16:56:25;-0.40;99.90
11925;DHT22;6022;48.768;18.608;2023-01-30T16:58:56;-0.40;99.90
11925;DHT22;6022;48.768;18.608;2023-01-30T17:01:37;-0.30;99.90
11925;DHT22;6022;48.768;18.608;2023-01-30T17:04:16;-0.20;99.90
11925;DHT22;6022;48.768;18.608;2023-01-30T17:06:53;-0.20;99.90
11925;DHT22;6022;48.768;18.608;2023-01-30T17:09:44;-0.30;99.90
11925;DHT22;6022;48.768;18.608;2023-01-30T17:12:34;-0.20;99.90
11925;DHT22;6022;48.768;18.608;2023-01-30T17:17:35;0.20;99.90
11925;DHT22;6022;48.768;18.608;2023-01-30T17:20:03;-0.30;99.90
11925;DHT22;6022;48.768;18.608;2023-01-30T17:22:31;-0.40;99.90
11925;DHT22;6022;48.768;18.608;2023-01-30T17:25:01;-0.50;99.90
11925;DHT22;6022;48.768;18.608;2023-01-30T17:27:39;-0.40;99.90
11925;DHT22;6022;48.768;18.608;2023-01-30T17:30:17;1.30;99.90
11925;DHT22;6022;48.768;18.608;2023-01-30T17:32:45;-0.40;99.90
11925;DHT22;6022;48.768;18.608;2023-01-30T17:35:12;-0.30;99.90
11925;DHT22;6022;48.768;18.608;2023-01-30T17:37:40;-0.40;99.90
11925;DHT22;6022;48.768;18.608;2023-01-30T17:40:19;0.00;99.90
11925;DHT22;6022;48.768;18.608;2023-01-30T17:42:53;0.00;99.90
11925;DHT22;6022;48.768;18.608;2023-01-30T17:45:20;-0.50;99.90
11925;DHT22;6022;48.768;18.608;2023-01-30T17:47:47;-0.20;99.90
11925;DHT22;6022;48.768;18.608;2023-01-30T17:50:14;-0.40;99.90
11925;DHT22;6022;48.768;18.608;2023-01-30T17:52:44;-0.40;99.90
11925;DHT22;6022;48.768;18.608;2023-01-30T17:55:14;-0.10;99.90
11925;DHT22;6022;48.768;18.608;2023-01-30T17:57:47;-0.40;99.90
11925;DHT22;6022;48.768;18.608;2023-01-30T18:00:18;0.70;99.90
11925;DHT22;6022;48.768;18.608;2023-01-30T18:02:47;-0.10;99.90
11925;DHT22;6022;48.768;18.608;2023-01-30T18:05:15;-0.40;99.90
11925;DHT22;6022;48.768;18.608;2023-01-30T18:07:43;-0.50;99.90
11925;DHT22;6022;48.768;18.608;2023-01-30T18:10:13;-0.50;99.90
11925;DHT22;6022;48.768;18.608;2023-01-30T18:12:43;-0.10;99.90
11925;DHT22;6022;48.768;18.608;2023-01-30T18:15:12;-0.20;99.90
11925;DHT22;6022;48.768;18.608;2023-01-30T18:17:45;1.10;99.90
11925;DHT22;6022;48.768;18.608;2023-01-30T18:20:16;-0.40;99.90
11925;DHT22;6022;48.768;18.608;2023-01-30T18:22:45;-0.10;99.90
11925;DHT22;6022;48.768;18.608;2023-01-30T18:25:13;0.00;99.90
11925;DHT22;6022;48.768;18.608;2023-01-30T18:27:41;-0.10;99.90
11925;DHT22;6022;48.768;18.608;2023-01-30T18:30:14;0.10;99.90
11925;DHT22;6022;48.768;18.608;2023-01-30T18:32:46;0.10;99.90
11925;DHT22;6022;48.768;18.608;2023-01-30T18:35:20;-0.10;99.90
11925;DHT22;6022;48.768;18.608;2023-01-30T18:37:48;0.40;99.90
11925;DHT22;6022;48.768;18.608;2023-01-30T18:40:17;-0.10;99.90
11925;DHT22;6022;48.768;18.608;2023-01-30T18:42:45;-0.10;99.90
11925;DHT22;6022;48.768;18.608;2023-01-30T18:45:12;0.10;99.90
11925;DHT22;6022;48.768;18.608;2023-01-30T18:47:39;-0.30;99.90
11925;DHT22;6022;48.768;18.608;2023-01-30T18:50:07;0.10;99.90
11925;DHT22;6022;48.768;18.608;2023-01-30T18:52:35;0.00;99.90
11925;DHT22;6022;48.768;18.608;2023-01-30T18:55:02;0.20;99.90
11925;DHT22;6022;48.768;18.608;2023-01-30T18:57:29;-0.10;99.90
11925;DHT22;6022;48.768;18.608;2023-01-30T18:59:57;-0.30;99.90
11925;DHT22;6022;48.768;18.608;2023-01-30T19:04:52;0.10;99.90
11925;DHT22;6022;48.768;18.608;2023-01-30T19:07:19;-0.10;99.90
11925;DHT22;6022;48.768;18.608;2023-01-30T19:09:46;0.50;99.90
11925;DHT22;6022;48.768;18.608;2023-01-30T19:12:23;0.20;99.90
11925;DHT22;6022;48.768;18.608;2023-01-30T19:15:12;0.20;99.90
11925;DHT22;6022;48.768;18.608;2023-01-30T19:17:41;0.20;99.90
11925;DHT22;6022;48.768;18.608;2023-01-30T19:20:08;0.20;99.90
11925;DHT22;6022;48.768;18.608;2023-01-30T19:22:38;0.20;99.90
11925;DHT22;6022;48.768;18.608;2023-01-30T19:25:05;0.10;99.90
11925;DHT22;6022;48.768;18.608;2023-01-30T19:27:37;0.40;99.90
11925;DHT22;6022;48.768;18.608;2023-01-30T19:30:07;0.30;99.90
11925;DHT22;6022;48.768;18.608;2023-01-30T19:32:35;0.30;99.90
11925;DHT22;6022;48.768;18.608;2023-01-30T19:35:03;0.40;99.90
11925;DHT22;6022;48.768;18.608;2023-01-30T19:37:30;0.40;99.90
11925;DHT22;6022;48.768;18.608;2023-01-30T19:39:57;0.40;99.90
11925;DHT22;6022;48.768;18.608;2023-01-30T19:42:24;0.30;99.90
11925;DHT22;6022;48.768;18.608;2023-01-30T19:44:52;0.40;99.90
11925;DHT22;6022;48.768;18.608;2023-01-30T19:47:19;0.50;99.90
11925;DHT22;6022;48.768;18.608;2023-01-30T19:49:47;0.40;99.90
11925;DHT22;6022;48.768;18.608;2023-01-30T19:52:15;0.70;99.90
11925;DHT22;6022;48.768;18.608;2023-01-30T19:54:42;0.80;99.90
11925;DHT22;6022;48.768;18.608;2023-01-30T19:57:12;0.90;99.90
11925;DHT22;6022;48.768;18.608;2023-01-30T19:59:40;0.50;99.90
11925;DHT22;6022;48.768;18.608;2023-01-30T20:02:08;0.60;99.90
11925;DHT22;6022;48.768;18.608;2023-01-30T20:04:39;0.70;99.90
11925;DHT22;6022;48.768;18.608;2023-01-30T20:07:07;0.50;99.90
11925;DHT22;6022;48.768;18.608;2023-01-30T20:09:34;0.90;99.90